Time;durP1;ratioP1;P1;durP2;ratioP2;P2;SDS_P1;SDS_P2;PMS_P1;PMS_P2;Temp;Humidity;BMP_temperature;BMP_pressure;BME280_temperature;BME280_humidity;BME280_pressure;Samples;Min_cycle;Max_cycle;Signal;HPM_P1;HPM_P2
2024/03/02 00:00:54;;;;;;;150.38;37.17;;;;;;;8.70;100.00;96877.34;5004112;28;20193;-64
2024/03/02 00:03:20;;;;;;;94.22;37.05;;;;;;;8.83;100.00;96877.16;5005216;28;20057;-67
2024/03/02 00:05:51;;;;;;;147.57;41.13;;;;;;;8.70;100.00;96872.16;5004074;28;20377;-63
2024/03/02 00:08:24;;;;;;;84.80;42.63;;;;;;;8.70;100.00;96877.34;5006666;28;20032;-66
2024/03/02 00:10:49;;;;;;;142.10;42.08;;;;;;;8.69;100.00;96872.19;5002992;28;20284;-62
2024/03/02 00:13:14;;;;;;;115.00;40.42;;;;;;;9.02;100.00;96863.94;5005092;28;20022;-63
2024/03/02 00:15:47;;;;;;;73.18;34.47;;;;;;;9.03;100.00;96860.47;5006390;28;20970;-62
2024/03/02 00:18:26;;;;;;;69.90;32.25;;;;;;;8.91;100.00;96867.53;5008491;28;20412;-62
2024/03/02 00:20:56;;;;;;;114.85;33.58;;;;;;;9.08;100.00;96867.28;5006294;28;20096;-58
2024/03/02 00:23:22;;;;;;;77.72;38.20;;;;;;;9.01;100.00;96859.63;5007147;28;20025;-59
2024/03/02 00:25:56;;;;;;;123.95;34.08;;;;;;;8.65;100.00;96863.56;5005625;28;20033;-60
2024/03/02 00:28:25;;;;;;;74.32;36.10;;;;;;;8.72;100.00;96856.56;5008500;28;20029;-60
2024/03/02 00:31:09;;;;;;;123.82;38.75;;;;;;;8.96;100.00;96857.09;5005973;28;20037;-58
2024/03/02 00:33:42;;;;;;;71.38;44.88;;;;;;;9.22;100.00;96859.31;5008667;28;20030;-59
2024/03/02 00:36:08;;;;;;;102.18;39.30;;;;;;;9.13;100.00;96862.00;5006190;28;20042;-60
2024/03/02 00:38:34;;;;;;;77.88;35.55;;;;;;;9.09;100.00;96863.81;5007656;28;20898;-60
2024/03/02 00:41:04;;;;;;;121.00;43.60;;;;;;;8.72;100.00;96861.75;5005299;28;20056;-60
2024/03/02 00:43:54;;;;;;;93.65;34.65;;;;;;;8.46;100.00;96863.81;5010777;28;20028;-59
2024/03/02 00:46:20;;;;;;;90.82;44.85;;;;;;;8.99;100.00;96860.50;5009613;28;20038;-61
2024/03/02 00:48:55;;;;;;;96.47;46.85;;;;;;;8.89;100.00;96858.94;5007096;28;20018;-60
2024/03/02 00:51:26;;;;;;;69.40;38.63;;;;;;;8.85;100.00;96862.44;5004601;28;20100;-61
2024/03/02 00:53:57;;;;;;;112.38;43.53;;;;;;;9.14;100.00;96861.16;5007184;28;20071;-60
2024/03/02 00:56:26;;;;;;;74.72;33.92;;;;;;;8.71;100.00;96857.47;5007566;28;20034;-59
2024/03/02 00:58:52;;;;;;;130.32;40.72;;;;;;;8.88;100.00;96862.41;5005611;28;20405;-59
2024/03/02 01:01:17;;;;;;;85.28;45.13;;;;;;;8.78;100.00;96861.69;5006848;28;20045;-61
2024/03/02 01:03:43;;;;;;;89.65;37.88;;;;;;;8.44;100.00;96862.97;5004951;28;20025;-59
2024/03/02 01:06:09;;;;;;;112.40;41.53;;;;;;;8.45;100.00;96861.22;5004807;28;20382;-61
2024/03/02 01:08:35;;;;;;;83.25;46.63;;;;;;;8.36;100.00;96861.34;5006345;28;20056;-60
2024/03/02 01:11:01;;;;;;;122.80;46.83;;;;;;;8.89;100.00;96863.25;5004169;28;20573;-62
2024/03/02 01:13:26;;;;;;;114.18;44.15;;;;;;;8.66;100.00;96864.44;5006233;28;20032;-61
2024/03/02 01:15:52;;;;;;;130.07;56.42;;;;;;;8.62;100.00;96868.81;5003877;28;20041;-59
2024/03/02 01:18:18;;;;;;;81.78;49.40;;;;;;;8.63;100.00;96869.66;5007682;28;20030;-60
2024/03/02 01:20:43;;;;;;;104.82;49.85;;;;;;;8.88;100.00;96869.31;5003594;28;20417;-60
2024/03/02 01:23:09;;;;;;;97.57;47.22;;;;;;;8.85;100.00;96871.09;5007931;28;20444;-60
2024/03/02 01:25:35;;;;;;;83.75;49.63;;;;;;;9.00;100.00;96874.34;5010002;28;20152;-62
2024/03/02 01:28:01;;;;;;;117.88;57.33;;;;;;;9.10;100.00;96869.88;5005884;28;20040;-62
2024/03/02 01:30:26;;;;;;;80.45;46.97;;;;;;;9.00;100.00;96863.97;5008295;28;20022;-61
2024/03/02 01:32:51;;;;;;;108.18;52.08;;;;;;;8.83;100.00;96861.59;5006375;28;20559;-60
2024/03/02 01:35:17;;;;;;;98.05;44.95;;;;;;;8.61;100.00;96872.28;5007153;28;20028;-62
2024/03/02 01:37:42;;;;;;;85.63;50.20;;;;;;;8.57;100.00;96866.28;5008364;28;20064;-61
2024/03/02 01:40:11;;;;;;;96.43;47.28;;;;;;;8.37;100.00;96868.25;5007677;28;20040;-63
2024/03/02 01:42:37;;;;;;;128.27;56.47;;;;;;;8.99;100.00;96868.28;5009447;28;20050;-61
2024/03/02 01:45:06;;;;;;;120.20;53.35;;;;;;;8.75;100.00;96866.06;5008722;28;20033;-60
2024/03/02 01:47:32;;;;;;;102.95;45.67;;;;;;;9.10;100.00;96868.09;5006907;28;20042;-62
2024/03/02 01:49:58;;;;;;;133.38;57.10;;;;;;;8.66;100.00;96856.66;5006656;28;20116;-60
2024/03/02 01:52:23;;;;;;;90.03;41.92;;;;;;;8.69;100.00;96854.03;5007632;28;20463;-60
2024/03/02 01:54:49;;;;;;;78.32;38.47;;;;;;;9.12;100.00;96870.69;5006818;28;20038;-63
2024/03/02 01:57:14;;;;;;;92.13;37.88;;;;;;;9.13;100.00;96853.41;5006903;28;20045;-63
2024/03/02 01:59:39;;;;;;;89.55;43.45;;;;;;;8.63;100.00;96852.38;5009860;28;20373;-63
2024/03/02 02:02:05;;;;;;;110.50;48.78;;;;;;;9.02;100.00;96861.34;5003104;28;20030;-62
2024/03/02 02:04:30;;;;;;;92.50;46.50;;;;;;;9.27;100.00;96860.97;5008230;28;20037;-61
2024/03/02 02:06:56;;;;;;;110.35;46.38;;;;;;;9.36;100.00;96866.00;5007182;28;20419;-60
2024/03/02 02:09:21;;;;;;;92.15;47.50;;;;;;;9.38;100.00;96867.69;5008793;28;20366;-60
2024/03/02 02:11:47;;;;;;;80.50;46.25;;;;;;;9.66;100.00;96868.94;5005453;28;20409;-62
2024/03/02 02:14:12;;;;;;;78.13;44.70;;;;;;;9.11;100.00;96867.25;5007048;28;20107;-62
2024/03/02 02:16:37;;;;;;;105.10;45.28;;;;;;;8.91;100.00;96870.13;5006568;28;20053;-59
2024/03/02 02:19:03;;;;;;;96.43;49.20;;;;;;;9.03;100.00;96863.91;5006229;28;20500;-59
2024/03/02 02:21:28;;;;;;;67.80;32.40;;;;;;;9.02;100.00;96869.13;5004549;28;20042;-60
2024/03/02 02:23:54;;;;;;;99.07;42.83;;;;;;;9.13;100.00;96871.56;5006201;28;20028;-61
2024/03/02 02:26:19;;;;;;;77.25;41.95;;;;;;;9.03;100.00;96869.09;5007979;28;20033;-62
2024/03/02 02:28:47;;;;;;;70.63;43.80;;;;;;;8.69;100.00;96870.44;5028009;28;20545;-64
2024/03/02 02:31:16;;;;;;;98.93;44.38;;;;;;;8.62;100.00;96867.97;5026013;28;20032;-61
2024/03/02 02:33:42;;;;;;;82.72;43.50;;;;;;;8.89;100.00;96866.72;5027671;28;20037;-63
2024/03/02 02:36:07;;;;;;;75.90;46.72;;;;;;;9.21;100.00;96870.53;5026702;28;20041;-63
2024/03/02 02:38:40;;;;;;;98.25;44.28;;;;;;;8.80;100.00;96872.03;5026886;28;20024;-61
2024/03/02 02:41:06;;;;;;;105.28;44.90;;;;;;;9.10;100.00;96867.28;5024642;28;20041;-61
2024/03/02 02:43:31;;;;;;;107.05;44.50;;;;;;;9.08;100.00;96876.78;5026653;28;20025;-60
2024/03/02 02:45:56;;;;;;;102.93;40.28;;;;;;;8.77;100.00;96874.66;5026779;28;20054;-63
2024/03/02 02:48:21;;;;;;;87.65;42.83;;;;;;;9.02;100.00;96871.72;5027660;28;20035;-61
2024/03/02 02:50:47;;;;;;;97.07;43.97;;;;;;;8.99;100.00;96870.88;5024699;28;20033;-60
2024/03/02 02:53:12;;;;;;;87.80;43.63;;;;;;;9.08;100.00;96871.63;5026646;28;20128;-62
2024/03/02 02:55:40;;;;;;;89.07;42.30;;;;;;;9.18;100.00;96868.00;5024302;28;20075;-62
2024/03/02 02:58:06;;;;;;;121.60;46.03;;;;;;;9.35;100.00;96872.03;5026161;28;20041;-57
2024/03/02 03:00:33;;;;;;;85.85;39.72;;;;;;;9.21;100.00;96867.09;5025366;28;20044;-61
2024/03/02 03:02:58;;;;;;;109.88;43.13;;;;;;;9.17;100.00;96866.28;5023890;28;20077;-62
2024/03/02 03:05:23;;;;;;;92.63;41.08;;;;;;;9.35;100.00;96866.84;5024872;28;20065;-61
2024/03/02 03:07:49;;;;;;;78.97;37.97;;;;;;;9.57;100.00;96869.97;5026387;28;20029;-59
2024/03/02 03:10:15;;;;;;;72.32;41.35;;;;;;;9.59;100.00;96872.53;5026696;28;20024;-60
2024/03/02 03:12:42;;;;;;;135.32;43.58;;;;;;;9.48;100.00;96867.53;5026357;28;20718;-58
2024/03/02 03:15:08;;;;;;;104.13;33.83;;;;;;;9.39;100.00;96868.53;5027244;28;20404;-59
2024/03/02 03:17:34;;;;;;;91.35;44.72;;;;;;;9.13;100.00;96872.38;5026653;28;20027;-58
2024/03/02 03:20:01;;;;;;;151.55;46.35;;;;;;;9.02;100.00;96866.53;5023273;28;20451;-60
2024/03/02 03:22:26;;;;;;;87.70;43.30;;;;;;;8.78;100.00;96866.88;5025170;28;20042;-60
2024/03/02 03:24:52;;;;;;;96.43;44.80;;;;;;;8.83;100.00;96867.66;5026332;28;20018;-63
2024/03/02 03:27:17;;;;;;;109.00;55.08;;;;;;;8.93;100.00;96868.38;5027138;28;20032;-59
2024/03/02 03:29:43;;;;;;;95.93;53.00;;;;;;;8.66;100.00;96875.69;5028947;28;20452;-58
2024/03/02 03:32:08;;;;;;;97.70;52.45;;;;;;;8.89;100.00;96874.50;5030492;28;20037;-59
2024/03/02 03:34:34;;;;;;;111.55;60.22;;;;;;;8.71;100.00;96868.69;5029477;28;20566;-59
2024/03/02 03:36:59;;;;;;;113.35;56.70;;;;;;;8.75;100.00;96868.66;5030688;28;20042;-59
2024/03/02 03:39:25;;;;;;;98.13;61.65;;;;;;;9.19;100.00;96872.31;5029017;28;20017;-61
2024/03/02 03:41:50;;;;;;;104.13;53.10;;;;;;;8.94;100.00;96871.81;5029109;28;20060;-58
2024/03/02 03:44:16;;;;;;;95.68;54.75;;;;;;;8.85;100.00;96878.00;5030482;28;20156;-62
2024/03/02 03:46:41;;;;;;;119.50;60.60;;;;;;;8.83;100.00;96874.56;5028137;28;20477;-58
2024/03/02 03:49:07;;;;;;;151.73;82.25;;;;;;;9.38;100.00;96878.06;5028634;28;20025;-58
2024/03/02 03:51:33;;;;;;;111.60;59.00;;;;;;;9.58;100.00;96883.81;5027515;28;20041;-60
2024/03/02 03:53:58;;;;;;;140.65;55.47;;;;;;;8.88;100.00;96880.56;5028211;28;20044;-60
2024/03/02 03:56:24;;;;;;;92.88;51.70;;;;;;;9.15;100.00;96878.44;5030603;28;20052;-59
2024/03/02 03:58:49;;;;;;;101.88;47.70;;;;;;;9.01;100.00;96875.19;5029941;28;20052;-62
2024/03/02 04:01:14;;;;;;;119.13;53.13;;;;;;;8.72;100.00;96880.78;5029393;28;20037;-60
2024/03/02 04:03:39;;;;;;;118.03;56.15;;;;;;;8.58;100.00;96873.16;5029085;28;20029;-60
2024/03/02 04:06:05;;;;;;;133.38;71.03;;;;;;;8.62;100.00;96876.59;5031531;28;20028;-62
2024/03/02 04:08:30;;;;;;;133.93;69.85;;;;;;;8.56;100.00;96871.47;5028560;28;20044;-61
2024/03/02 04:10:56;;;;;;;148.48;63.78;;;;;;;8.52;100.00;96877.53;5028410;28;20038;-60
2024/03/02 04:13:21;;;;;;;104.88;68.28;;;;;;;8.46;100.00;96876.75;5032417;28;20038;-59
2024/03/02 04:15:46;;;;;;;130.32;77.90;;;;;;;8.50;100.00;96884.50;5029852;28;20047;-62
2024/03/02 04:18:12;;;;;;;121.00;72.68;;;;;;;8.52;100.00;96883.59;5032188;28;20801;-61
2024/03/02 04:20:37;;;;;;;109.28;64.10;;;;;;;8.66;100.00;96883.47;5029870;28;20168;-59
2024/03/02 04:23:03;;;;;;;163.52;71.72;;;;;;;8.98;100.00;96878.66;5028808;28;20021;-63
2024/03/02 04:25:28;;;;;;;122.88;74.05;;;;;;;8.68;100.00;96884.28;5030018;28;20496;-60
2024/03/02 04:27:53;;;;;;;108.10;58.47;;;;;;;8.64;100.00;96889.53;5029581;28;20035;-61
2024/03/02 04:30:18;;;;;;;117.57;65.15;;;;;;;8.79;100.00;96889.31;5029054;28;20019;-60
2024/03/02 04:32:46;;;;;;;118.40;51.38;;;;;;;8.70;100.00;96886.84;5031154;28;20013;-60
2024/03/02 04:35:12;;;;;;;108.35;56.47;;;;;;;8.56;100.00;96882.72;5029271;28;20662;-60
2024/03/02 04:37:38;;;;;;;120.38;52.53;;;;;;;8.55;100.00;96890.50;5029073;28;20531;-59
2024/03/02 04:40:08;;;;;;;123.22;49.15;;;;;;;8.37;100.00;96889.84;5028379;28;20743;-60
2024/03/02 04:42:33;;;;;;;114.60;42.53;;;;;;;7.68;100.00;96897.47;5028336;28;20411;-62
2024/03/02 04:44:58;;;;;;;138.77;45.53;;;;;;;7.43;100.00;96901.13;5028896;28;20507;-61
2024/03/02 04:47:24;;;;;;;107.88;61.80;;;;;;;7.60;100.00;96904.44;5029303;28;20033;-62
2024/03/02 04:49:49;;;;;;;133.95;51.22;;;;;;;7.38;100.00;96913.25;5029082;28;20025;-60
2024/03/02 04:52:14;;;;;;;140.70;58.85;;;;;;;7.46;100.00;96914.91;5027675;28;20120;-62
2024/03/02 04:57:23;;;;;;;127.22;47.38;;;;;;;7.61;100.00;96919.09;5027689;28;20124;-61
2024/03/02 04:59:49;;;;;;;131.85;54.40;;;;;;;7.78;100.00;96918.94;5028427;28;20109;-59
2024/03/02 05:02:14;;;;;;;98.22;46.33;;;;;;;7.64;100.00;96919.06;5029050;28;20060;-61
2024/03/02 05:04:40;;;;;;;115.20;49.67;;;;;;;7.25;100.00;96916.81;5026265;28;20521;-60
2024/03/02 05:07:05;;;;;;;116.60;54.42;;;;;;;7.67;100.00;96914.72;5034111;28;20033;-59
2024/03/02 05:09:30;;;;;;;108.85;57.25;;;;;;;7.82;100.00;96923.22;5028162;28;20044;-60
2024/03/02 05:14:40;;;;;;;97.13;42.65;;;;;;;7.47;100.00;96916.63;5029302;28;20583;-64
2024/03/02 05:17:05;;;;;;;163.73;55.92;;;;;;;7.44;100.00;96914.94;5026319;28;20033;-60
2024/03/02 05:19:30;;;;;;;111.60;58.53;;;;;;;7.74;100.00;96914.66;5028643;28;20658;-61
2024/03/02 05:21:56;;;;;;;105.60;48.25;;;;;;;7.77;100.00;96922.41;5028065;28;20045;-61
2024/03/02 05:24:21;;;;;;;119.90;43.33;;;;;;;7.65;100.00;96921.63;5027667;28;20127;-60
2024/03/02 05:26:46;;;;;;;97.53;45.97;;;;;;;7.97;100.00;96926.56;5027121;28;20034;-61
2024/03/02 05:29:12;;;;;;;124.78;45.83;;;;;;;7.67;100.00;96919.03;5028239;28;20017;-61
2024/03/02 05:31:37;;;;;;;103.60;38.92;;;;;;;7.92;100.00;96922.28;5026836;28;20430;-60
2024/03/02 05:34:02;;;;;;;101.28;36.95;;;;;;;8.16;100.00;96927.19;5025937;28;20022;-64
2024/03/02 05:36:28;;;;;;;71.75;33.83;;;;;;;8.21;100.00;96928.03;5027812;28;20135;-62
2024/03/02 05:38:53;;;;;;;101.57;42.28;;;;;;;7.95;100.00;96921.38;5026589;28;20061;-61
2024/03/02 05:41:18;;;;;;;81.10;37.25;;;;;;;7.96;100.00;96923.09;5025508;28;20294;-60
2024/03/02 05:43:44;;;;;;;96.93;39.58;;;;;;;7.94;100.00;96925.69;5028649;28;20059;-62
2024/03/02 05:46:09;;;;;;;126.28;43.15;;;;;;;8.08;100.00;96928.16;5027641;28;20060;-60
2024/03/02 05:48:34;;;;;;;90.28;40.90;;;;;;;7.85;100.00;96930.97;5027889;28;20029;-59
2024/03/02 05:51:00;;;;;;;113.70;40.28;;;;;;;8.00;100.00;96934.25;5026257;28;20127;-60
2024/03/02 05:53:25;;;;;;;107.20;39.47;;;;;;;7.85;100.00;96930.97;5030612;28;20105;-58
2024/03/02 05:55:55;;;;;;;92.65;39.47;;;;;;;7.79;100.00;96933.59;5029910;28;20043;-59
2024/03/02 05:58:31;;;;;;;82.45;41.45;;;;;;;8.03;100.00;96929.94;5029519;28;20025;-59
2024/03/02 06:00:57;;;;;;;113.28;41.25;;;;;;;7.77;100.00;96932.75;5025293;28;20131;-60
2024/03/02 06:03:22;;;;;;;88.43;45.38;;;;;;;7.82;100.00;96933.56;5029554;28;20088;-59
2024/03/02 06:05:49;;;;;;;100.07;51.13;;;;;;;7.93;100.00;96930.88;5028831;28;20957;-58
2024/03/02 06:08:14;;;;;;;124.10;47.13;;;;;;;7.81;100.00;96937.03;5025910;28;20033;-60
2024/03/02 06:10:40;;;;;;;96.15;41.40;;;;;;;7.73;100.00;96933.66;5027755;28;20039;-59
2024/03/02 06:13:05;;;;;;;105.00;38.70;;;;;;;7.53;100.00;96937.25;5026104;28;20040;-57
2024/03/02 06:15:31;;;;;;;101.40;47.92;;;;;;;7.52;100.00;96930.38;5025738;28;20032;-61
2024/03/02 06:17:56;;;;;;;110.18;50.78;;;;;;;7.41;100.00;96933.06;5027170;28;20049;-58
2024/03/02 06:20:21;;;;;;;100.05;56.78;;;;;;;7.51;100.00;96928.66;5025524;28;20041;-58
2024/03/02 06:22:47;;;;;;;121.05;56.50;;;;;;;7.37;100.00;96939.13;5024354;28;20411;-59
2024/03/02 06:25:13;;;;;;;137.20;53.88;;;;;;;7.34;100.00;96942.59;5026014;28;20378;-60
2024/03/02 06:27:38;;;;;;;118.72;56.72;;;;;;;7.25;100.00;96934.91;5025951;28;20032;-58
2024/03/02 06:30:04;;;;;;;140.95;56.25;;;;;;;7.28;100.00;96937.47;5027025;28;20025;-58
2024/03/02 06:32:30;;;;;;;113.25;50.70;;;;;;;7.43;100.00;96929.56;5026541;28;20635;-57
2024/03/02 06:34:55;;;;;;;136.40;57.17;;;;;;;7.46;100.00;96938.22;5026117;28;20040;-59
2024/03/02 06:37:20;;;;;;;95.97;49.83;;;;;;;7.46;100.00;96935.63;5024780;28;20033;-60
2024/03/02 06:39:45;;;;;;;143.23;87.35;;;;;;;7.41;100.00;96933.94;5026827;28;20415;-59
2024/03/02 06:42:11;;;;;;;140.00;49.45;;;;;;;7.30;100.00;96933.13;5027757;28;20397;-59
2024/03/02 06:44:36;;;;;;;103.68;46.60;;;;;;;7.49;100.00;96935.56;5027454;28;20432;-59
2024/03/02 06:47:01;;;;;;;141.65;71.78;;;;;;;7.64;100.00;96932.88;5024772;28;20042;-60
2024/03/02 06:49:27;;;;;;;126.93;51.20;;;;;;;7.46;100.00;96936.47;5026744;28;20021;-59
2024/03/02 06:51:52;;;;;;;121.68;50.85;;;;;;;7.57;100.00;96938.97;5024466;28;20503;-59
2024/03/02 06:54:17;;;;;;;105.75;56.35;;;;;;;7.50;100.00;96935.56;5025930;28;20504;-59
2024/03/02 06:56:43;;;;;;;129.50;79.65;;;;;;;7.51;100.00;96928.66;5028073;28;20036;-59
2024/03/02 06:59:08;;;;;;;143.05;58.25;;;;;;;7.95;100.00;96944.69;5027226;28;20505;-59
2024/03/02 07:01:34;;;;;;;88.25;49.40;;;;;;;8.30;100.00;96947.75;5025885;28;20041;-59
2024/03/02 07:03:59;;;;;;;136.00;49.17;;;;;;;8.53;100.00;96946.66;5028650;28;20031;-58
2024/03/02 07:06:25;;;;;;;104.97;52.90;;;;;;;8.41;100.00;96948.50;5033978;28;20025;-60
2024/03/02 07:08:50;;;;;;;92.57;46.38;;;;;;;8.25;100.00;96940.06;5033094;28;20030;-61
2024/03/02 07:11:16;;;;;;;145.70;59.33;;;;;;;8.56;100.00;96944.91;5028296;28;20076;-60
2024/03/02 07:13:41;;;;;;;118.13;56.42;;;;;;;8.98;100.00;96946.97;5030853;28;20109;-57
2024/03/02 07:19:04;;;;;;;146.90;72.43;;;;;;;9.83;100.00;96956.09;5027310;28;20077;-58
2024/03/02 07:21:29;;;;;;;119.13;60.83;;;;;;;10.45;100.00;96959.31;5027144;28;20124;-60
2024/03/02 07:23:55;;;;;;;146.70;71.28;;;;;;;10.06;100.00;96955.66;5036421;28;20017;-57
2024/03/02 07:26:20;;;;;;;115.45;66.10;;;;;;;10.63;100.00;96960.72;5027835;28;20570;-59
2024/03/02 07:28:47;;;;;;;107.28;52.15;;;;;;;10.25;100.00;96960.53;5028569;28;20522;-60
2024/03/02 07:31:13;;;;;;;127.30;45.63;;;;;;;9.88;100.00;96962.06;5026841;28;20064;-58
2024/03/02 07:33:38;;;;;;;121.30;61.60;;;;;;;10.18;100.00;96974.53;5029558;28;20403;-60
2024/03/02 07:36:04;;;;;;;167.63;66.90;;;;;;;10.26;100.00;96970.91;5025807;28;20083;-58
2024/03/02 07:38:29;;;;;;;147.35;77.60;;;;;;;10.93;100.00;96969.63;5029670;28;20021;-58
2024/03/02 07:40:55;;;;;;;163.85;122.80;;;;;;;12.65;100.00;96981.13;5027475;28;20084;-58
2024/03/02 07:43:21;;;;;;;160.82;108.55;;;;;;;14.03;100.00;96986.56;5028697;28;20583;-59
2024/03/02 07:45:47;;;;;;;176.50;106.40;;;;;;;16.68;100.00;96999.25;5029311;28;20112;-61
2024/03/02 07:48:13;;;;;;;129.73;52.55;;;;;;;16.13;100.00;96995.44;5028555;28;20116;-58
2024/03/02 07:50:39;;;;;;;143.68;84.18;;;;;;;15.93;100.00;96997.09;5025963;28;20034;-60
2024/03/02 07:53:05;;;;;;;112.68;28.20;;;;;;;15.96;100.00;96997.00;5026996;28;20057;-58
2024/03/02 07:55:30;;;;;;;71.88;22.17;;;;;;;15.42;100.00;96996.50;5027533;28;20522;-59
2024/03/02 07:57:57;;;;;;;84.43;28.38;;;;;;;14.79;100.00;97000.56;5027736;28;20469;-59
2024/03/02 08:00:22;;;;;;;75.65;30.85;;;;;;;14.96;100.00;96994.72;5026904;28;20025;-58
2024/03/02 08:02:48;;;;;;;72.57;40.53;;;;;;;15.75;100.00;96994.28;5028301;28;20025;-59
2024/03/02 08:05:14;;;;;;;94.68;20.90;;;;;;;15.58;100.00;96970.53;5027330;28;20025;-60
2024/03/02 08:07:40;;;;;;;59.50;23.83;;;;;;;15.65;100.00;96924.81;5030037;28;20076;-61
2024/03/02 08:10:06;;;;;;;81.57;19.83;;;;;;;14.83;100.00;96916.66;5026907;28;20031;-57
2024/03/02 08:12:32;;;;;;;97.45;22.38;;;;;;;15.23;100.00;96918.63;5026574;28;20064;-58
2024/03/02 08:14:57;;;;;;;60.03;17.02;;;;;;;13.49;100.00;96926.47;5029150;28;20078;-60
2024/03/02 08:17:22;;;;;;;51.17;19.00;;;;;;;14.02;100.00;96931.69;5028421;28;20037;-61
2024/03/02 08:19:48;;;;;;;106.70;22.35;;;;;;;14.33;100.00;96922.81;5026561;28;20400;-60
2024/03/02 08:22:15;;;;;;;90.47;21.70;;;;;;;14.11;100.00;96922.69;5026750;28;20073;-58
2024/03/02 08:24:40;;;;;;;68.75;19.67;;;;;;;13.70;100.00;96923.19;5027274;28;20017;-60
2024/03/02 08:27:06;;;;;;;110.30;30.38;;;;;;;13.98;100.00;96928.34;5025900;28;20496;-61
2024/03/02 08:29:31;;;;;;;71.28;29.38;;;;;;;13.95;100.00;96927.63;5028344;28;20032;-60
2024/03/02 08:31:57;;;;;;;77.88;32.40;;;;;;;13.71;100.00;96928.38;5025519;28;20044;-59
2024/03/02 08:34:22;;;;;;;85.30;28.75;;;;;;;13.53;100.00;96928.09;5027087;28;20404;-59
2024/03/02 08:36:48;;;;;;;71.50;30.85;;;;;;;12.78;100.00;96923.38;5027571;28;20033;-61
2024/03/02 08:39:16;;;;;;;93.00;25.85;;;;;;;13.95;100.00;96928.44;5027469;28;20028;-61
2024/03/02 08:41:43;;;;;;;80.68;19.52;;;;;;;14.63;100.00;96927.84;5025727;28;20076;-59
2024/03/02 08:44:09;;;;;;;137.80;74.90;;;;;;;15.21;100.00;96930.91;5026070;28;20523;-61
2024/03/02 08:46:34;;;;;;;83.55;48.92;;;;;;;15.81;100.00;96924.19;5028371;28;20120;-62
2024/03/02 08:49:00;;;;;;;207.73;165.10;;;;;;;16.55;100.00;96925.41;5026463;28;20476;-62
2024/03/02 08:51:25;;;;;;;65.07;32.80;;;;;;;14.60;100.00;96922.72;5024472;28;20052;-61
2024/03/02 08:53:50;;;;;;;72.47;36.50;;;;;;;16.78;100.00;96923.56;5026795;28;20575;-62
2024/03/02 08:56:16;;;;;;;112.40;53.30;;;;;;;16.66;100.00;96924.94;5026093;28;20033;-60
2024/03/02 08:58:41;;;;;;;78.03;40.58;;;;;;;17.39;100.00;96924.25;5028951;28;20203;-59
2024/03/02 09:01:08;;;;;;;76.82;36.22;;;;;;;15.92;100.00;96924.59;5027104;28;20072;-59
2024/03/02 09:03:34;;;;;;;75.78;24.27;;;;;;;15.73;100.00;96929.75;5028824;28;20159;-59
2024/03/02 09:06:00;;;;;;;69.88;20.45;;;;;;;15.94;100.00;96928.03;5026537;28;20041;-59
2024/03/02 09:08:25;;;;;;;62.25;23.95;;;;;;;17.37;100.00;96923.47;5027058;28;20404;-59
2024/03/02 09:10:51;;;;;;;73.68;26.63;;;;;;;18.06;100.00;96933.28;5026310;28;20320;-60
2024/03/02 09:13:16;;;;;;;66.22;14.60;;;;;;;16.82;99.19;96933.00;5026324;28;20018;-59
2024/03/02 09:15:42;;;;;;;55.33;19.55;;;;;;;17.14;100.00;96932.44;5027088;28;20086;-58
2024/03/02 09:18:07;;;;;;;79.85;18.25;;;;;;;16.95;100.00;96928.00;5026399;28;20279;-61
2024/03/02 09:20:33;;;;;;;56.92;18.00;;;;;;;17.90;100.00;96926.16;5026369;28;20476;-60
2024/03/02 09:22:58;;;;;;;54.58;14.23;;;;;;;17.15;100.00;96931.53;5025740;28;20034;-60
2024/03/02 09:25:23;;;;;;;91.93;17.08;;;;;;;17.55;100.00;96926.13;5024359;28;20033;-60
2024/03/02 09:27:49;;;;;;;45.25;14.20;;;;;;;17.21;97.84;96928.59;5024622;28;20701;-59
2024/03/02 09:30:14;;;;;;;81.22;17.63;;;;;;;17.72;92.83;96934.97;5024793;28;20422;-60
2024/03/02 09:32:40;;;;;;;100.97;16.67;;;;;;;16.98;100.00;96929.66;5024579;28;20095;-57
2024/03/02 09:35:06;;;;;;;53.13;14.35;;;;;;;17.37;100.00;96927.88;5027910;28;20722;-62
2024/03/02 09:37:31;;;;;;;62.15;14.20;;;;;;;17.23;97.92;96925.91;5040551;28;20071;-61
2024/03/02 09:39:56;;;;;;;89.95;15.38;;;;;;;17.05;100.00;96929.31;5026646;28;20338;-59
2024/03/02 09:42:22;;;;;;;83.13;15.98;;;;;;;16.55;100.00;96916.72;5023836;28;20064;-58
2024/03/02 09:44:48;;;;;;;40.97;12.07;;;;;;;17.33;100.00;96916.66;5024617;28;20035;-61
2024/03/02 09:47:13;;;;;;;76.40;14.55;;;;;;;16.36;100.00;96926.25;5025010;28;20136;-59
2024/03/02 09:49:39;;;;;;;51.05;14.20;;;;;;;16.85;100.00;96919.69;5027510;28;20035;-61
2024/03/02 09:52:06;;;;;;;77.10;20.10;;;;;;;16.48;100.00;96919.59;5023112;28;20040;-59
2024/03/02 09:54:32;;;;;;;61.13;14.75;;;;;;;16.98;100.00;96909.50;5024503;28;20027;-58
2024/03/02 09:56:57;;;;;;;59.90;13.07;;;;;;;17.76;88.88;96912.84;5026948;28;20041;-60
2024/03/02 09:59:22;;;;;;;71.78;14.05;;;;;;;17.86;86.15;96903.59;5024827;28;20441;-61
2024/03/02 10:01:58;;;;;;;58.55;15.98;;;;;;;17.72;93.03;96901.63;5023893;28;20064;-58
2024/03/02 10:04:26;;;;;;;78.70;16.65;;;;;;;17.60;88.98;96897.84;5024420;28;20017;-58
2024/03/02 10:06:52;;;;;;;84.75;31.95;;;;;;;17.05;94.05;96910.09;5025880;28;20049;-58
2024/03/02 10:09:28;;;;;;;191.68;126.88;;;;;;;17.08;92.49;96906.47;5041155;28;20397;-59
2024/03/02 10:12:04;;;;;;;78.97;24.20;;;;;;;15.99;100.00;96897.22;5027140;28;20025;-60
2024/03/02 10:14:29;;;;;;;57.95;15.68;;;;;;;15.81;100.00;96904.06;5025014;28;20029;-59
2024/03/02 10:17:02;;;;;;;62.10;17.73;;;;;;;16.87;100.00;96909.13;5023575;28;20041;-60
2024/03/02 10:19:32;;;;;;;137.40;79.65;;;;;;;17.15;100.00;96902.63;5024208;28;20051;-60
2024/03/02 10:21:58;;;;;;;67.50;17.77;;;;;;;18.14;100.00;96894.31;5025098;28;20480;-59
2024/03/02 10:24:23;;;;;;;85.80;19.88;;;;;;;18.71;100.00;96892.25;5022216;28;20480;-59
2024/03/02 10:26:50;;;;;;;53.45;14.93;;;;;;;18.14;90.69;96890.81;5027784;28;20037;-59
2024/03/02 10:29:16;;;;;;;78.55;17.40;;;;;;;17.99;90.51;96895.91;5025298;28;20029;-58
2024/03/02 10:31:42;;;;;;;68.95;17.55;;;;;;;17.81;100.00;96892.41;5023295;28;20026;-61
2024/03/02 10:34:09;;;;;;;73.22;39.85;;;;;;;18.08;100.00;96895.47;5023843;28;20028;-61
2024/03/02 10:36:35;;;;;;;64.30;22.70;;;;;;;16.81;100.00;96894.50;5024875;28;20051;-61
2024/03/02 10:39:05;;;;;;;94.00;31.77;;;;;;;16.63;98.75;96893.59;5023284;28;20903;-59
2024/03/02 10:41:35;;;;;;;64.60;19.80;;;;;;;16.16;100.00;96895.66;5023790;28;20048;-59
2024/03/02 10:44:03;;;;;;;65.63;18.40;;;;;;;15.96;100.00;96893.91;5033080;28;20025;-61
2024/03/02 10:46:30;;;;;;;103.53;22.27;;;;;;;15.73;100.00;96899.16;5024198;28;20425;-59
2024/03/02 10:49:00;;;;;;;67.18;28.75;;;;;;;15.30;100.00;96903.53;5027167;28;20314;-60
2024/03/02 10:51:35;;;;;;;151.80;64.10;;;;;;;15.63;100.00;96908.31;5022798;28;20144;-59
2024/03/02 10:54:03;;;;;;;173.90;139.60;;;;;;;15.00;100.00;96890.72;5026469;28;20104;-58
2024/03/02 10:56:33;;;;;;;96.93;22.83;;;;;;;15.10;100.00;96897.31;5025446;28;20033;-60
2024/03/02 10:59:28;;;;;;;82.93;15.82;;;;;;;15.06;100.00;96893.09;5023874;28;20055;-60
2024/03/02 11:01:58;;;;;;;86.28;31.20;;;;;;;15.25;100.00;96893.22;5025055;28;20061;-59
2024/03/02 11:04:25;;;;;;;130.77;58.10;;;;;;;14.85;100.00;96882.56;5024025;28;20033;-61
2024/03/02 11:06:51;;;;;;;67.72;22.63;;;;;;;14.78;100.00;96883.72;5025451;28;20033;-59
2024/03/02 11:09:21;;;;;;;120.15;34.13;;;;;;;14.80;100.00;96890.59;5023511;28;20052;-57
2024/03/02 11:11:54;;;;;;;60.67;17.02;;;;;;;15.10;100.00;96874.59;5022581;28;20062;-57
2024/03/02 11:14:23;;;;;;;184.50;131.70;;;;;;;14.95;100.00;96870.81;5021680;28;20109;-59
2024/03/02 11:16:49;;;;;;;49.97;21.70;;;;;;;15.46;100.00;96875.81;5025655;28;20156;-58